Terminal Aerodrome Forecast
Issued by NWS

Home | Current Version | Previous Version | Text Only | Print | Product List | Glossary On
Versions: 1 2 3 4 5 6 7 8 9 10 11 12 13 14 15 16 17
000
FTUS46 KLOX 181700
TAFBUR
TAF
KBUR 181737Z 1818/1918 VRB03KT P6SM -SHRA SCT050 OVC070
      TEMPO 1818/1820 BKN050
     FM182000 VRB04KT P6SM SCT050 BKN080
     FM190000 VRB03KT P6SM SCT020 SCT080
     FM191000 VRB03KT P6SM SCT020=

USA.gov is the U.S. government's official web portal to all federal, state and local government web resources and services.